Time;durP1;ratioP1;P1;durP2;ratioP2;P2;SDS_P1;SDS_P2;PMS_P1;PMS_P2;Temp;Humidity;BMP_temperature;BMP_pressure;BME280_temperature;BME280_humidity;BME280_pressure;Samples;Min_cycle;Max_cycle;Signal;HPM_P1;HPM_P2
2023/04/18 02:39:16;;;;;;;16.77;12.97;;;14.20;99.90;;;;;;4584173;19;20361;-30
2023/04/18 02:40:47;;;;;;;15.10;12.97;;;14.10;99.90;;;;;;4589571;19;20015;-30
2023/04/18 02:42:19;;;;;;;17.15;14.10;;;14.20;99.90;;;;;;4588507;19;20003;-30
2023/04/18 02:43:51;;;;;;;14.93;12.93;;;14.10;99.90;;;;;;4589162;19;20379;-30
2023/04/18 02:45:22;;;;;;;17.75;13.55;;;14.10;99.90;;;;;;4587019;19;20364;-30
2023/04/18 02:48:45;;;;;;;18.83;13.40;;;14.10;99.90;;;;;;4588389;19;20070;-30
2023/04/18 02:50:16;;;;;;;17.88;13.60;;;14.10;99.90;;;;;;4589397;19;20019;-30
2023/04/18 02:51:48;;;;;;;16.50;13.52;;;14.20;99.90;;;;;;4589427;19;20048;-30
2023/04/18 02:53:22;;;;;;;17.58;13.30;;;14.20;99.90;;;;;;4589403;19;20011;-30
2023/04/18 02:54:54;;;;;;;16.33;13.37;;;14.20;99.90;;;;;;4591803;19;20002;-30
2023/04/18 02:56:25;;;;;;;17.67;13.68;;;14.20;99.90;;;;;;4593798;19;20014;-30
2023/04/18 02:57:58;;;;;;;16.57;13.10;;;14.20;99.90;;;;;;4592626;19;20010;-30
2023/04/18 02:59:30;;;;;;;17.10;13.47;;;14.20;99.90;;;;;;4594386;19;20506;-30
2023/04/18 03:01:03;;;;;;;17.43;13.57;;;14.30;99.90;;;;;;4594282;19;20039;-30
2023/04/18 03:02:35;;;;;;;16.00;13.53;;;14.30;99.90;;;;;;4593638;19;20011;-30
2023/04/18 03:04:06;;;;;;;17.10;12.98;;;14.30;99.90;;;;;;4594183;19;20018;-30
2023/04/18 03:05:40;;;;;;;15.90;13.07;;;14.30;99.90;;;;;;4593985;19;20074;-30
2023/04/18 03:07:12;;;;;;;16.03;13.07;;;14.30;99.90;;;;;;4594354;19;20012;-30
2023/04/18 03:08:44;;;;;;;;;;;14.30;99.90;;;;;;4594569;19;20070;-30
2023/04/18 03:10:16;;;;;;;18.20;14.10;;;14.30;99.90;;;;;;4594282;19;19919;-30
2023/04/18 03:11:48;;;;;;;16.87;13.40;;;14.30;99.90;;;;;;4592407;19;20015;-30
2023/04/18 03:13:20;;;;;;;16.97;14.03;;;14.30;99.90;;;;;;4592266;19;20483;-30
2023/04/18 03:14:54;;;;;;;14.27;12.07;;;14.30;99.90;;;;;;4593059;19;20018;-30
2023/04/18 03:16:26;;;;;;;14.23;12.40;;;14.30;99.90;;;;;;4592489;19;20538;-30
2023/04/18 03:17:57;;;;;;;16.85;13.65;;;14.30;99.90;;;;;;4592631;19;20007;-30
2023/04/18 03:19:30;;;;;;;17.00;14.27;;;14.30;99.90;;;;;;4593389;19;20014;-30
2023/04/18 03:21:06;;;;;;;14.60;12.10;;;14.30;99.90;;;;;;4593241;19;20333;-30
2023/04/18 03:22:37;;;;;;;16.13;13.55;;;14.30;99.90;;;;;;4593475;19;19998;-30
2023/04/18 03:24:09;;;;;;;16.90;14.27;;;14.30;99.90;;;;;;4594271;19;20033;-31
2023/04/18 03:25:41;;;;;;;17.73;13.97;;;14.30;99.90;;;;;;4593224;19;20360;-30
2023/04/18 03:27:12;;;;;;;19.50;15.00;;;14.20;99.90;;;;;;4592460;19;20011;-30
2023/04/18 03:28:46;;;;;;;16.27;13.33;;;14.20;99.90;;;;;;4593216;19;20459;-30
2023/04/18 03:30:19;;;;;;;15.77;13.30;;;14.20;99.90;;;;;;4594192;19;20006;-30
2023/04/18 03:31:53;;;;;;;17.80;14.07;;;14.10;99.90;;;;;;4592123;19;20483;-30
2023/04/18 03:33:24;;;;;;;16.85;14.25;;;14.20;99.90;;;;;;4591702;19;20074;-30
2023/04/18 03:34:56;;;;;;;17.38;15.02;;;14.10;99.90;;;;;;4592913;19;20490;-30
2023/04/18 03:36:30;;;;;;;15.93;14.00;;;14.10;99.90;;;;;;4593512;19;20007;-30
2023/04/18 03:38:01;;;;;;;19.30;14.73;;;14.10;99.90;;;;;;4590746;19;20017;-30
2023/04/18 03:39:34;;;;;;;17.53;14.30;;;14.10;99.90;;;;;;4592574;19;20007;-30
2023/04/18 03:41:07;;;;;;;16.40;13.83;;;14.20;99.90;;;;;;4593518;19;20005;-31
2023/04/18 03:42:40;;;;;;;18.27;13.83;;;14.20;99.90;;;;;;4593333;19;20006;-31
2023/04/18 03:44:13;;;;;;;17.93;14.57;;;14.20;99.90;;;;;;4592010;19;20345;-30
2023/04/18 03:45:46;;;;;;;17.30;13.65;;;14.20;99.90;;;;;;4592894;19;20467;-30
2023/04/18 03:47:17;;;;;;;17.30;14.13;;;14.20;99.90;;;;;;4593122;19;20022;-30
2023/04/18 03:48:49;;;;;;;15.30;13.27;;;14.20;99.90;;;;;;4591144;19;20373;-30
2023/04/18 03:50:24;;;;;;;19.23;13.60;;;14.20;99.90;;;;;;4592947;19;20010;-30
2023/04/18 03:51:55;;;;;;;15.60;13.63;;;14.20;99.90;;;;;;4593380;19;20030;-30
2023/04/18 03:53:28;;;;;;;17.10;13.63;;;14.10;99.90;;;;;;4591778;19;20470;-30
2023/04/18 03:54:59;;;;;;;17.27;13.38;;;14.20;99.90;;;;;;4591400;19;20021;-30
2023/04/18 03:56:31;;;;;;;15.90;13.17;;;14.10;99.90;;;;;;4590277;19;20525;-30
2023/04/18 03:58:03;;;;;;;17.85;13.52;;;14.10;99.90;;;;;;4590490;19;20002;-30
2023/04/18 03:59:36;;;;;;;19.07;13.93;;;14.10;99.90;;;;;;4592938;19;20353;-30
2023/04/18 04:01:08;;;;;;;15.70;13.90;;;14.20;99.90;;;;;;4590066;19;20515;-30
2023/04/18 04:02:41;;;;;;;16.83;15.03;;;14.20;99.90;;;;;;4591901;19;20006;-31
2023/04/18 04:04:14;;;;;;;16.73;13.53;;;14.10;99.90;;;;;;4593092;19;20006;-30
2023/04/18 04:05:47;;;;;;;16.07;14.37;;;14.10;99.90;;;;;;4592676;19;20478;-30
2023/04/18 04:07:18;;;;;;;14.45;12.30;;;14.10;99.90;;;;;;4590864;19;20015;-30
2023/04/18 04:08:49;;;;;;;16.65;14.23;;;14.10;99.90;;;;;;4593134;19;20014;-30
2023/04/18 04:10:22;;;;;;;19.53;14.63;;;14.10;99.90;;;;;;4592783;19;20025;-30
2023/04/18 04:11:56;;;;;;;16.60;14.60;;;14.10;99.90;;;;;;4592613;19;20033;-30
2023/04/18 04:13:28;;;;;;;14.95;13.05;;;14.10;99.90;;;;;;4592305;19;20495;-30
2023/04/18 04:15:03;;;;;;;16.67;13.30;;;14.00;99.90;;;;;;4592483;19;20017;-30
2023/04/18 04:16:35;;;;;;;19.60;14.53;;;14.10;99.90;;;;;;4592326;19;20017;-30
2023/04/18 04:19:56;;;;;;;17.40;15.33;;;14.10;99.90;;;;;;4592078;19;20007;-30
2023/04/18 04:21:30;;;;;;;16.53;13.97;;;14.00;99.90;;;;;;4591262;19;20014;-30
2023/04/18 04:23:05;;;;;;;16.70;14.00;;;14.10;99.90;;;;;;4592402;19;20022;-30
2023/04/18 04:24:39;;;;;;;17.83;13.93;;;14.10;99.90;;;;;;4591551;19;20019;-30
2023/04/18 04:26:13;;;;;;;15.77;13.97;;;14.10;99.90;;;;;;4591721;19;20344;-31
2023/04/18 04:27:45;;;;;;;15.50;12.93;;;14.10;99.90;;;;;;4592082;19;20021;-30
2023/04/18 04:29:17;;;;;;;19.10;14.70;;;14.10;99.90;;;;;;4592746;19;20014;-30
2023/04/18 04:30:51;;;;;;;18.87;13.93;;;14.10;99.90;;;;;;4591351;19;20010;-30
2023/04/18 04:32:23;;;;;;;19.20;14.37;;;14.10;99.90;;;;;;4590973;19;20018;-31
2023/04/18 04:33:54;;;;;;;;;;;14.10;99.90;;;;;;4592364;19;20346;-31
2023/04/18 04:35:25;;;;;;;17.50;14.07;;;14.10;99.90;;;;;;4592003;19;19922;-30
2023/04/18 04:36:57;;;;;;;16.92;13.68;;;14.10;99.90;;;;;;4590745;19;20018;-30
2023/04/18 04:38:29;;;;;;;17.77;13.17;;;14.10;99.90;;;;;;4591523;19;20484;-30
2023/04/18 04:40:05;;;;;;;17.03;13.93;;;14.10;99.90;;;;;;4591186;19;20332;-31
2023/04/18 04:41:38;;;;;;;16.43;13.27;;;14.00;99.90;;;;;;4592124;19;20074;-31
2023/04/18 04:43:11;;;;;;;18.50;14.13;;;14.10;99.90;;;;;;4590740;19;20033;-31
2023/04/18 04:44:45;;;;;;;18.80;14.00;;;14.10;99.90;;;;;;4591304;19;20501;-31
2023/04/18 04:46:18;;;;;;;18.57;14.57;;;14.10;99.90;;;;;;4590748;19;20356;-30
2023/04/18 04:47:51;;;;;;;17.40;14.53;;;14.10;99.90;;;;;;4590901;19;20033;-31
2023/04/18 04:49:24;;;;;;;17.23;14.03;;;14.10;99.90;;;;;;4591187;19;20011;-30
2023/04/18 04:50:57;;;;;;;16.50;13.43;;;14.10;99.90;;;;;;4590364;19;20021;-30
2023/04/18 04:52:31;;;;;;;17.47;14.63;;;14.10;99.90;;;;;;4591200;19;20014;-31
2023/04/18 04:54:03;;;;;;;18.83;14.60;;;14.10;99.90;;;;;;4591599;19;20014;-31
2023/04/18 04:55:37;;;;;;;18.57;13.03;;;14.10;99.90;;;;;;4591740;19;20013;-31
2023/04/18 05:02:34;;;;;;;18.27;14.13;;;14.10;99.90;;;;;;4590621;19;19996;-30
2023/04/18 05:04:08;;;;;;;16.23;13.27;;;14.10;99.90;;;;;;4591910;19;20001;-30
2023/04/18 05:05:40;;;;;;;16.77;13.47;;;14.10;99.90;;;;;;4591114;19;20041;-31
2023/04/18 05:07:11;;;;;;;15.15;13.40;;;14.10;99.90;;;;;;4591507;19;20006;-30
2023/04/18 05:08:43;;;;;;;17.57;13.07;;;14.10;99.90;;;;;;4591524;19;20018;-31
2023/04/18 05:10:15;;;;;;;15.75;13.15;;;14.10;99.90;;;;;;4591494;19;20356;-31
2023/04/18 05:11:48;;;;;;;;;;;14.10;99.90;;;;;;4591801;19;20038;-31
2023/04/18 05:13:19;;;;;;;17.50;14.33;;;14.10;99.90;;;;;;4589886;19;20263;-30
2023/04/18 05:14:51;;;;;;;;;;;14.10;99.90;;;;;;4591984;19;20037;-31
2023/04/18 05:16:22;;;;;;;17.83;12.53;;;14.10;99.90;;;;;;4590983;19;19922;-31
2023/04/18 05:17:53;;;;;;;16.70;13.70;;;14.10;99.90;;;;;;4589785;19;20017;-31
2023/04/18 05:19:25;;;;;;;16.15;12.70;;;14.10;99.90;;;;;;4589916;19;20010;-30
2023/04/18 05:20:56;;;;;;;16.85;12.63;;;14.10;99.90;;;;;;4590748;19;20014;-31
2023/04/18 05:22:27;;;;;;;17.70;13.80;;;14.10;99.90;;;;;;4590893;19;20015;-31
2023/04/18 05:23:59;;;;;;;;;;;14.10;99.90;;;;;;4590944;19;20023;-31
2023/04/18 05:25:30;;;;;;;16.33;13.37;;;14.20;99.90;;;;;;4590794;19;19914;-31
2023/04/18 05:27:05;;;;;;;16.77;13.40;;;14.10;99.90;;;;;;4590869;19;20006;-30
2023/04/18 05:28:36;;;;;;;15.30;13.25;;;14.10;99.90;;;;;;4589538;19;20014;-30
2023/04/18 05:30:07;;;;;;;16.80;13.10;;;14.10;99.90;;;;;;4589403;19;20018;-31
2023/04/18 05:31:40;;;;;;;16.80;14.17;;;14.10;99.90;;;;;;4587941;19;20010;-31
2023/04/18 05:33:12;;;;;;;18.50;14.03;;;14.10;99.90;;;;;;4590795;19;20043;-31
2023/04/18 05:34:44;;;;;;;19.67;13.70;;;14.10;99.90;;;;;;4589403;19;20018;-30
2023/04/18 05:36:16;;;;;;;17.90;14.10;;;14.10;99.90;;;;;;4587381;19;20030;-32
2023/04/18 05:37:47;;;;;;;18.65;14.60;;;14.00;99.90;;;;;;4588052;19;20028;-31
2023/04/18 05:39:18;;;;;;;17.77;12.93;;;14.00;99.90;;;;;;4590078;19;20508;-31
2023/04/18 05:40:50;;;;;;;19.23;13.48;;;14.10;99.90;;;;;;4587358;19;20037;-31
2023/04/18 05:42:21;;;;;;;17.10;13.85;;;14.10;99.90;;;;;;4588742;19;20589;-31
2023/04/18 05:43:53;;;;;;;16.17;13.43;;;14.10;99.90;;;;;;4588424;19;20089;-30
2023/04/18 05:45:25;;;;;;;15.43;12.97;;;14.10;99.90;;;;;;4588732;19;20010;-31
2023/04/18 05:46:58;;;;;;;16.98;12.93;;;14.20;99.90;;;;;;4589902;19;20038;-31
2023/04/18 05:48:31;;;;;;;16.93;13.97;;;14.20;99.90;;;;;;4588413;19;20052;-31
2023/04/18 05:50:03;;;;;;;16.05;13.60;;;14.20;99.90;;;;;;4590164;19;20010;-31
2023/04/18 05:51:35;;;;;;;21.07;14.00;;;14.20;99.90;;;;;;4589872;19;20017;-30
2023/04/18 05:53:06;;;;;;;16.02;13.00;;;14.20;99.90;;;;;;4589280;19;20014;-30
2023/04/18 05:54:38;;;;;;;16.42;13.75;;;14.30;99.90;;;;;;4587628;19;20356;-31
2023/04/18 05:56:09;;;;;;;18.40;13.27;;;14.30;99.90;;;;;;4587775;19;20105;-30
2023/04/18 05:57:40;;;;;;;16.92;13.90;;;14.20;99.90;;;;;;4586660;19;20121;-30
2023/04/18 05:59:13;;;;;;;17.10;13.87;;;14.20;99.90;;;;;;4587338;19;20018;-31
2023/04/18 06:00:47;;;;;;;19.20;14.27;;;14.30;99.90;;;;;;4590264;19;20017;-30
2023/04/18 06:02:24;;;;;;;17.40;12.98;;;14.40;99.90;;;;;;4590881;19;20474;-30
2023/04/18 06:03:59;;;;;;;15.33;13.53;;;14.40;99.90;;;;;;4589567;19;20007;-30
2023/04/18 06:05:32;;;;;;;15.20;13.40;;;14.30;99.90;;;;;;4589165;19;20037;-30
2023/04/18 06:07:03;;;;;;;17.33;13.15;;;14.40;99.90;;;;;;4590103;19;20011;-31
2023/04/18 06:08:34;;;;;;;15.10;12.43;;;14.40;99.90;;;;;;4590764;19;20024;-30
2023/04/18 06:10:09;;;;;;;17.85;13.13;;;14.40;99.90;;;;;;4588196;19;20018;-30
2023/04/18 06:11:43;;;;;;;15.47;13.30;;;14.50;99.90;;;;;;4587717;19;20010;-31
2023/04/18 06:13:15;;;;;;;15.93;13.80;;;14.50;99.90;;;;;;4587316;19;20011;-30
2023/04/18 06:14:48;;;;;;;17.53;14.23;;;14.50;99.90;;;;;;4587984;19;20014;-30
2023/04/18 06:16:19;;;;;;;18.43;13.37;;;14.60;99.90;;;;;;4586838;19;20015;-30
2023/04/18 06:17:50;;;;;;;16.42;14.73;;;14.60;99.90;;;;;;4586859;19;20040;-30
2023/04/18 06:19:22;;;;;;;18.60;16.55;;;13.10;99.90;;;;;;4591532;19;20022;-30
2023/04/18 06:20:54;;;;;;;17.67;15.77;;;12.10;99.90;;;;;;4589900;19;20019;-30
2023/04/18 06:22:26;;;;;;;18.67;16.47;;;11.60;99.90;;;;;;4590211;19;20429;-30
2023/04/18 06:24:01;;;;;;;17.90;16.00;;;11.40;99.90;;;;;;4589053;19;20437;-30
2023/04/18 06:25:33;;;;;;;18.80;16.80;;;11.30;99.90;;;;;;4589091;19;20465;-30
2023/04/18 06:27:09;;;;;;;18.67;16.70;;;11.30;99.90;;;;;;4588750;19;20330;-30
2023/04/18 06:49:19;;;;;;;19.43;16.10;;;11.30;99.90;;;;;;4590341;19;20433;-30
2023/04/18 06:50:52;;;;;;;25.13;22.53;;;11.30;99.90;;;;;;4594189;19;20806;-30
2023/04/18 06:52:24;;;;;;;;;;;11.40;99.90;;;;;;4594105;19;20433;-30
2023/04/18 06:53:55;;;;;;;18.47;16.50;;;11.40;99.90;;;;;;4593043;19;19926;-30
2023/04/18 06:55:28;;;;;;;17.67;15.77;;;11.40;99.90;;;;;;4593056;19;20444;-30
2023/04/18 06:57:02;;;;;;;19.53;16.90;;;11.40;99.90;;;;;;4592515;19;20924;-30
2023/04/18 06:58:35;;;;;;;18.97;17.03;;;11.40;99.90;;;;;;4593518;19;20413;-30
2023/04/18 07:00:28;;;;;;;18.03;16.13;;;11.50;99.90;;;;;;4592755;19;20441;-30
2023/04/18 07:02:06;;;;;;;18.23;16.27;;;11.50;99.90;;;;;;4593084;19;20429;-30
2023/04/18 07:03:52;;;;;;;18.50;16.50;;;11.50;99.90;;;;;;4593615;19;20485;-30
2023/04/18 07:05:26;;;;;;;19.67;15.53;;;11.50;99.90;;;;;;4592467;19;20514;-30
2023/04/18 07:06:58;;;;;;;16.42;14.70;;;11.50;99.90;;;;;;4591729;19;20409;-30
2023/04/18 07:10:39;;;;;;;17.97;16.07;;;11.50;99.90;;;;;;4593428;19;20443;-30
2023/04/18 07:12:12;;;;;;;17.70;15.80;;;11.60;99.90;;;;;;4594002;19;20429;-30
2023/04/18 07:13:46;;;;;;;17.63;15.53;;;11.60;99.90;;;;;;4594072;19;20425;-30
2023/04/18 07:15:18;;;;;;;18.30;15.57;;;11.60;99.90;;;;;;4594053;19;20421;-30
2023/04/18 07:16:51;;;;;;;18.27;14.87;;;11.60;99.90;;;;;;4593307;19;21040;-30
2023/04/18 07:18:23;;;;;;;17.90;15.27;;;11.70;99.90;;;;;;4592234;19;20460;-30
2023/04/18 07:19:58;;;;;;;17.63;15.50;;;11.70;99.90;;;;;;4593724;19;20389;-30
2023/04/18 07:21:32;;;;;;;18.83;16.70;;;11.70;99.90;;;;;;4594073;19;20433;-30
2023/04/18 07:23:05;;;;;;;17.10;15.30;;;11.70;99.90;;;;;;4593363;19;20014;-30
2023/04/18 07:24:42;;;;;;;18.53;16.27;;;11.70;99.90;;;;;;4593474;19;20428;-30
2023/04/18 07:26:18;;;;;;;17.23;15.43;;;11.70;99.90;;;;;;4592720;19;20413;-30
2023/04/18 07:27:58;;;;;;;16.77;14.97;;;11.70;99.90;;;;;;4592269;19;20459;-30
2023/04/18 07:29:35;;;;;;;16.93;15.13;;;11.80;99.90;;;;;;4592902;19;20497;-29
2023/04/18 07:31:10;;;;;;;17.57;15.00;;;11.80;99.90;;;;;;4593315;19;20479;-30
2023/04/18 07:32:42;;;;;;;17.43;14.43;;;11.80;99.90;;;;;;4592571;19;20511;-30
2023/04/18 07:34:13;;;;;;;19.20;14.52;;;11.80;99.90;;;;;;4593351;19;20452;-30
2023/04/18 07:35:49;;;;;;;21.57;14.83;;;12.00;99.90;;;;;;4592999;19;20356;-30
2023/04/18 07:37:21;;;;;;;18.50;13.63;;;12.20;99.90;;;;;;4592648;19;20453;-31
2023/04/18 07:38:55;;;;;;;18.63;15.33;;;12.50;99.90;;;;;;4592738;19;20451;-30
2023/04/18 07:40:28;;;;;;;18.57;14.33;;;12.70;99.90;;;;;;4592321;19;20420;-30
2023/04/18 07:42:01;;;;;;;18.13;14.33;;;12.90;99.90;;;;;;4589279;19;20429;-31
2023/04/18 07:43:32;;;;;;;19.17;13.90;;;13.10;99.90;;;;;;4592876;19;20010;-30
2023/04/18 07:45:05;;;;;;;17.53;13.43;;;13.30;99.90;;;;;;4593656;19;20010;-30
2023/04/18 07:46:45;;;;;;;20.77;14.60;;;13.40;99.90;;;;;;4593278;19;20018;-31
2023/04/18 07:48:21;;;;;;;19.07;14.63;;;13.50;99.90;;;;;;4591928;19;20014;-31
2023/04/18 07:49:54;;;;;;;18.47;13.40;;;13.70;99.90;;;;;;4591757;19;20026;-30
2023/04/18 07:51:30;;;;;;;17.88;13.50;;;13.70;99.90;;;;;;4591710;19;20014;-31
2023/04/18 07:53:02;;;;;;;16.80;13.17;;;13.80;99.90;;;;;;4592332;19;20010;-30
2023/04/18 07:54:33;;;;;;;16.67;13.67;;;13.90;99.90;;;;;;4592083;19;20092;-30
2023/04/18 07:56:05;;;;;;;;;;;14.00;99.90;;;;;;4590912;19;20011;-31
2023/04/18 07:57:36;;;;;;;15.87;12.57;;;14.00;99.90;;;;;;4591208;19;19919;-31
2023/04/18 07:59:08;;;;;;;16.08;12.38;;;14.10;99.90;;;;;;4592485;19;20006;-31
2023/04/18 08:00:41;;;;;;;14.80;11.87;;;14.10;99.90;;;;;;4592464;19;20082;-31
2023/04/18 08:02:12;;;;;;;15.70;12.63;;;14.20;99.90;;;;;;4591462;19;20340;-31
2023/04/18 08:03:46;;;;;;;15.63;12.53;;;14.30;99.90;;;;;;4592529;19;20015;-31
2023/04/18 08:05:18;;;;;;;18.70;14.43;;;14.30;99.90;;;;;;4591761;19;20371;-31
2023/04/18 08:06:50;;;;;;;17.63;13.20;;;14.30;99.90;;;;;;4592136;19;20035;-30
2023/04/18 08:08:22;;;;;;;17.13;14.27;;;14.30;99.90;;;;;;4591569;19;20035;-31
2023/04/18 08:09:53;;;;;;;16.50;13.65;;;14.40;99.90;;;;;;4592318;19;20014;-31
2023/04/18 08:11:25;;;;;;;15.90;13.17;;;14.40;99.90;;;;;;4592728;19;20007;-30
2023/04/18 08:12:56;;;;;;;15.88;13.27;;;14.40;99.90;;;;;;4591125;19;20353;-31
2023/04/18 08:14:30;;;;;;;20.50;15.20;;;14.40;99.90;;;;;;4591972;19;20010;-31
2023/04/18 08:16:03;;;;;;;21.03;14.30;;;14.50;99.90;;;;;;4592523;19;20018;-30
2023/04/18 08:17:34;;;;;;;16.17;13.07;;;14.50;99.90;;;;;;4591546;19;20014;-30
2023/04/18 08:19:09;;;;;;;17.87;12.67;;;14.60;99.90;;;;;;4591599;19;20018;-31
2023/04/18 08:20:42;;;;;;;18.63;15.03;;;14.60;99.90;;;;;;4592266;19;20066;-30
2023/04/18 08:22:14;;;;;;;;;;;14.40;99.90;;;;;;4592374;19;20062;-30
2023/04/18 08:23:47;;;;;;;17.37;15.47;;;13.30;99.90;;;;;;4590906;19;19910;-30
2023/04/18 08:25:23;;;;;;;16.67;14.87;;;12.70;99.90;;;;;;4591940;19;20006;-30
2023/04/18 08:26:55;;;;;;;16.57;14.80;;;12.50;99.90;;;;;;4592534;19;20429;-30
2023/04/18 08:28:27;;;;;;;18.30;16.37;;;12.50;99.90;;;;;;4592369;19;20006;-30
2023/04/18 08:30:02;;;;;;;17.77;15.50;;;12.50;99.90;;;;;;4591570;19;20027;-30
2023/04/18 08:31:38;;;;;;;15.27;13.67;;;12.50;99.90;;;;;;4592337;19;20849;-30
2023/04/18 08:33:10;;;;;;;16.80;14.37;;;12.50;99.90;;;;;;4591886;19;20389;-30
2023/04/18 08:34:43;;;;;;;16.30;14.53;;;12.50;99.90;;;;;;4592190;19;20437;-30
2023/04/18 08:36:15;;;;;;;16.55;14.73;;;12.60;99.90;;;;;;4591854;19;20429;-30
2023/04/18 08:37:48;;;;;;;14.63;13.13;;;12.60;99.90;;;;;;4591339;19;20011;-30
2023/04/18 08:39:21;;;;;;;16.63;14.43;;;12.60;99.90;;;;;;4592564;19;20437;-30
2023/04/18 08:40:54;;;;;;;16.03;14.33;;;12.60;99.90;;;;;;4591135;19;20424;-30
2023/04/18 08:42:30;;;;;;;16.30;14.40;;;12.60;99.90;;;;;;4591432;19;20360;-30
2023/04/18 08:44:02;;;;;;;16.33;14.63;;;12.60;99.90;;;;;;4591780;19;20471;-30
2023/04/18 08:45:35;;;;;;;17.90;15.97;;;12.60;99.90;;;;;;4591571;19;20480;-30
2023/04/18 08:47:12;;;;;;;16.67;14.27;;;12.60;99.90;;;;;;4589494;19;20421;-30
2023/04/18 08:48:43;;;;;;;17.03;15.23;;;12.60;99.90;;;;;;4588538;19;20477;-30
2023/04/18 08:50:18;;;;;;;17.10;14.77;;;12.60;99.90;;;;;;4590187;19;20480;-30
2023/04/18 08:51:51;;;;;;;16.17;14.47;;;12.60;99.90;;;;;;4590574;19;20451;-30
2023/04/18 08:53:22;;;;;;;15.93;13.98;;;12.60;99.90;;;;;;4590045;19;20014;-30
2023/04/18 08:54:56;;;;;;;18.20;15.73;;;12.70;99.90;;;;;;4590942;19;20021;-30
2023/04/18 08:56:28;;;;;;;17.07;15.37;;;12.70;99.90;;;;;;4590364;19;20473;-30
2023/04/18 08:58:00;;;;;;;17.42;15.30;;;12.70;99.90;;;;;;4590385;19;20070;-30
2023/04/18 08:59:34;;;;;;;20.63;16.80;;;12.70;99.90;;;;;;4590139;19;20408;-30
2023/04/18 09:01:06;;;;;;;20.90;17.90;;;12.70;99.90;;;;;;4590960;19;20467;-30
2023/04/18 09:02:42;;;;;;;17.67;15.50;;;12.80;99.90;;;;;;4591372;19;20865;-30
2023/04/18 09:04:39;;;;;;;18.47;16.47;;;12.80;99.90;;;;;;4590132;19;21009;-30
2023/04/18 09:06:17;;;;;;;18.27;15.93;;;12.80;99.90;;;;;;4590013;19;20794;-30
2023/04/18 09:07:53;;;;;;;19.90;15.90;;;12.90;99.90;;;;;;4590488;19;20007;-30
2023/04/18 09:09:26;;;;;;;16.97;15.17;;;12.90;99.90;;;;;;4590132;19;20018;-30
2023/04/18 09:11:20;;;;;;;17.20;14.53;;;12.90;99.90;;;;;;4590324;19;20455;-30
2023/04/18 09:12:55;;;;;;;16.33;14.50;;;12.90;99.90;;;;;;4590218;19;20802;-30
2023/04/18 09:14:27;;;;;;;20.37;16.03;;;12.90;99.90;;;;;;4591212;19;20058;-30
2023/04/18 09:16:00;;;;;;;16.10;14.23;;;12.90;99.90;;;;;;4591429;19;20002;-30
2023/04/18 09:17:33;;;;;;;17.58;15.57;;;13.00;99.90;;;;;;4590832;19;20014;-30
2023/04/18 09:19:16;;;;;;;20.33;17.27;;;13.00;99.90;;;;;;4589835;19;20445;-30
2023/04/18 09:20:49;;;;;;;17.33;14.83;;;13.00;99.90;;;;;;4589771;19;20027;-30
2023/04/18 09:22:22;;;;;;;17.20;15.40;;;13.00;99.90;;;;;;4591137;19;20432;-30
2023/04/18 09:24:16;;;;;;;17.13;14.87;;;13.00;99.90;;;;;;4591060;19;20483;-30
2023/04/18 09:25:49;;;;;;;16.97;13.23;;;13.10;99.90;;;;;;4590804;19;20015;-30
2023/04/18 09:27:26;;;;;;;17.83;15.00;;;13.10;99.90;;;;;;4589962;19;20014;-30
2023/04/18 09:28:58;;;;;;;17.57;15.03;;;13.10;99.90;;;;;;4590861;19;20953;-30
2023/04/18 09:30:36;;;;;;;18.13;15.13;;;13.10;99.90;;;;;;4590240;19;20018;-30
2023/04/18 09:32:10;;;;;;;15.63;13.97;;;13.10;99.90;;;;;;4589723;19;20010;-30
2023/04/18 09:33:53;;;;;;;15.70;14.00;;;13.10;99.90;;;;;;4590283;19;20014;-30
2023/04/18 09:35:26;;;;;;;14.90;13.30;;;13.10;99.90;;;;;;4590647;19;20010;-30
2023/04/18 09:37:06;;;;;;;16.47;13.23;;;13.10;99.90;;;;;;4590981;19;20021;-30
2023/04/18 09:38:38;;;;;;;16.87;13.60;;;13.10;99.90;;;;;;4588440;19;20011;-30
2023/04/18 09:40:18;;;;;;;15.73;13.83;;;13.10;99.90;;;;;;4590649;19;20011;-30
2023/04/18 09:41:57;;;;;;;16.67;14.87;;;13.20;99.90;;;;;;4591034;19;20025;-30
2023/04/18 09:43:57;;;;;;;17.13;14.90;;;13.20;99.90;;;;;;4589666;19;20010;-30
2023/04/18 09:45:29;;;;;;;18.30;15.23;;;13.20;99.90;;;;;;4589731;19;20401;-30
2023/04/18 09:47:06;;;;;;;15.43;13.50;;;13.20;99.90;;;;;;4589905;19;20031;-30
2023/04/18 09:48:41;;;;;;;14.80;13.30;;;13.20;99.90;;;;;;4587937;19;20006;-30
2023/04/18 09:50:15;;;;;;;16.50;13.63;;;13.20;99.90;;;;;;4589737;19;20413;-30
2023/04/18 09:51:48;;;;;;;15.60;13.57;;;13.30;99.90;;;;;;4589683;19;20003;-30
2023/04/18 09:53:19;;;;;;;;;;;13.30;99.90;;;;;;4590160;19;20017;-30
2023/04/18 09:54:57;;;;;;;15.75;13.80;;;13.30;99.90;;;;;;4589171;19;20363;-30
2023/04/18 09:56:30;;;;;;;14.70;12.37;;;13.30;99.90;;;;;;4589356;19;20063;-30
2023/04/18 09:58:02;;;;;;;15.20;13.10;;;13.30;99.90;;;;;;4588509;19;20074;-30
2023/04/18 10:00:16;;;;;;;13.80;11.33;;;13.30;99.90;;;;;;4589281;19;20015;-30
2023/04/18 10:01:48;;;;;;;13.70;12.20;;;13.30;99.90;;;;;;4589615;19;20444;-30
2023/04/18 10:03:19;;;;;;;14.93;13.13;;;13.40;99.90;;;;;;4589302;19;20033;-30
2023/04/18 10:04:51;;;;;;;14.20;12.70;;;13.40;99.90;;;;;;4587177;19;20023;-30
2023/04/18 10:06:26;;;;;;;13.17;11.40;;;13.40;99.90;;;;;;4589077;19;20018;-30
2023/04/18 10:07:57;;;;;;;14.40;12.50;;;13.40;99.90;;;;;;4588868;19;20404;-30
2023/04/18 10:09:31;;;;;;;12.83;11.30;;;13.40;99.90;;;;;;4589020;19;20003;-30
2023/04/18 10:11:02;;;;;;;12.80;11.40;;;13.50;99.90;;;;;;4589191;19;20006;-30
2023/04/18 10:12:35;;;;;;;13.60;11.67;;;13.40;99.90;;;;;;4590121;19;20022;-30
2023/04/18 10:14:10;;;;;;;12.90;11.60;;;13.40;99.90;;;;;;4588681;19;20037;-30
2023/04/18 10:15:41;;;;;;;12.97;11.27;;;13.50;99.90;;;;;;4589105;19;20017;-30
2023/04/18 10:17:13;;;;;;;14.17;11.40;;;13.50;99.90;;;;;;4589298;19;20005;-30
2023/04/18 10:18:47;;;;;;;12.83;10.83;;;13.50;99.90;;;;;;4590311;19;19998;-30
2023/04/18 10:20:22;;;;;;;12.03;10.83;;;13.50;99.90;;;;;;4588747;19;20468;-30
2023/04/18 10:21:59;;;;;;;13.13;11.40;;;13.50;99.90;;;;;;4588622;19;20017;-30
2023/04/18 10:23:33;;;;;;;11.97;10.77;;;13.50;99.90;;;;;;4588686;19;20018;-30
2023/04/18 10:25:06;;;;;;;13.40;11.90;;;13.40;99.90;;;;;;4588950;19;20378;-30
2023/04/18 10:26:45;;;;;;;12.30;10.70;;;13.50;99.90;;;;;;4589611;19;20024;-30
2023/04/18 10:28:19;;;;;;;12.97;11.67;;;13.40;99.90;;;;;;4589967;19;20022;-30
2023/04/18 10:29:53;;;;;;;12.97;11.00;;;13.50;99.90;;;;;;4588737;19;20014;-30
2023/04/18 10:31:26;;;;;;;13.63;12.17;;;13.50;99.90;;;;;;4588836;19;20407;-30
2023/04/18 10:32:57;;;;;;;17.53;13.43;;;13.50;99.90;;;;;;4589481;19;20013;-30
2023/04/18 10:34:29;;;;;;;12.95;11.60;;;13.50;99.90;;;;;;4588804;19;20018;-30
2023/04/18 10:36:05;;;;;;;14.03;12.47;;;13.50;99.90;;;;;;4588296;19;20010;-30
2023/04/18 10:37:49;;;;;;;15.53;13.67;;;13.50;99.90;;;;;;4589543;19;20002;-30
2023/04/18 10:39:22;;;;;;;15.38;12.40;;;13.60;99.90;;;;;;4589246;19;20031;-30
2023/04/18 10:41:17;;;;;;;14.73;13.03;;;13.60;99.90;;;;;;4589042;19;20033;-30
2023/04/18 10:42:50;;;;;;;17.20;13.90;;;13.60;99.90;;;;;;4589638;19;20011;-30
2023/04/18 10:44:22;;;;;;;;;;;13.60;99.90;;;;;;4591091;19;20021;-30
2023/04/18 10:46:09;;;;;;;14.33;12.13;;;13.60;99.90;;;;;;4590158;19;19928;-30
2023/04/18 10:47:41;;;;;;;15.70;12.67;;;13.60;99.90;;;;;;4589412;19;20431;-30
2023/04/18 10:49:20;;;;;;;14.90;12.90;;;13.60;99.90;;;;;;4588928;19;20495;-30
2023/04/18 10:51:15;;;;;;;14.70;12.77;;;13.60;99.90;;;;;;4589594;19;20018;-30
2023/04/18 10:52:47;;;;;;;12.30;11.00;;;13.60;99.90;;;;;;4588852;19;20011;-30
2023/04/18 10:54:36;;;;;;;12.85;11.52;;;13.70;99.90;;;;;;4588982;19;20491;-30
2023/04/18 10:56:09;;;;;;;12.17;10.87;;;13.70;99.90;;;;;;4588584;19;20017;-30
2023/04/18 10:57:42;;;;;;;13.02;11.32;;;13.70;99.90;;;;;;4587772;19;20479;-30
2023/04/18 10:59:15;;;;;;;13.87;12.20;;;13.70;99.90;;;;;;4588070;19;20022;-30
2023/04/18 11:01:05;;;;;;;12.88;11.15;;;13.80;99.90;;;;;;4588488;19;20019;-31
2023/04/18 11:02:37;;;;;;;13.63;11.70;;;13.80;99.90;;;;;;4588848;19;20391;-30
2023/04/18 11:04:13;;;;;;;13.37;10.97;;;13.80;99.90;;;;;;4588073;19;20024;-30
2023/04/18 11:05:46;;;;;;;12.90;11.53;;;13.80;99.90;;;;;;4588801;19;20523;-30
2023/04/18 11:07:33;;;;;;;12.20;10.80;;;13.80;99.90;;;;;;4588357;19;20015;-30
2023/04/18 11:09:12;;;;;;;12.73;10.77;;;13.90;99.90;;;;;;4588673;19;20030;-30